Lookout Mountain, TN (37350)

9:24 AM EST on December 25, 2014 (GMT -0500)
Flintstone - Air Force Station | Change Station
CLOSE
Current Station
Personal Weather Station
Location: Lookout Mountain, GA
Elevation: 1890 ft
Nearby Weather Stations

Elev 1890 ft 34.96 °N, 85.38 °W | Updated 30 seconds ago

Mostly Cloudy
Mostly Cloudy
37.0 °F
Feels Like 37 °F
N
1.3
Wind Variable Wind from NW
Gusts 1.3 mph

Today
High -- | Low -- °F
--% Chance of Precip.
Yesterday
High -- | Low -- °F
Precip. -- in
7:47 AM 5:35 PM
Waxing Crescent, 16% visible
Pressure 30.19 in
Visibility 10.0 miles
Clouds Mostly Cloudy 3200 ft
Mostly Cloudy 4000 ft
Windchill 37 °F
Dew Point 34 °F
Humidity 86%
Rainfall 0.02 in
Snow Depth Not available.
UV 0 out of 12
Pollen .10 out of 12
Air Quality Not available.
Flu Activity Not available.
METAR KCHA 251353Z 33005KT 10SM BKN032 BKN040 06/01 A3018 RMK AO2 SLP222 T00610006

More Conditions Fewer Conditions

Pressure 30.19 in
Visibility 10.0 miles
Clouds Mostly Cloudy 3200 ft
Mostly Cloudy 4000 ft
Windchill 37 °F
Dew Point 34 °F
Humidity 86%
Rainfall 0.02 in
Snow Depth Not available.
UV 0 out of 12
Pollen .10 out of 12
Air Quality Not available.
Flu Activity Not available.
METAR KCHA 251353Z 33005KT 10SM BKN032 BKN040 06/01 A3018 RMK AO2 SLP222 T00610006

More Conditions Fewer Conditions

10-Day Weather Forecast

Almanac

Astronomy

Dec. 25, 2014 Rise Set
Actual Time
Civil Twilight
Nautical Twilight
Astronomical Twilight
Moon
Length of Visible Light
Length of Day
Tomorrow will be .
, % of the Moon is Illuminated

Today's Extremes

State Highs State Lows

Community

WunderPhotos

Upload Photos

1,780,276 photos uploaded!

WunderBlogs® & News

Nearby

Air Quality

  Air Quality AQ Index Pollutant
Not available.

Snow Depth

Station Depth Elevation

Earthquake Activity

City Distance Mag. Time & Date
Minimum magnitude displayed is 2.5.

Coastal Water Temperatures

Place Temperature

Nearby Weather Stations